Time;durP1;ratioP1;P1;durP2;ratioP2;P2;SDS_P1;SDS_P2;PMS_P1;PMS_P2;Temp;Humidity;BMP_temperature;BMP_pressure;BME280_temperature;BME280_humidity;BME280_pressure;Samples;Min_cycle;Max_cycle;Signal;HPM_P1;HPM_P2
2023/05/12 00:01:40;;;;;;;6.63;5.88;;;12.60;99.90;;;;;;5076141;28;20484;-69
2023/05/12 00:04:06;;;;;;;9.40;5.85;;;12.60;99.90;;;;;;5076097;28;20040;-70
2023/05/12 00:06:32;;;;;;;6.55;5.63;;;12.60;99.90;;;;;;5076302;28;20036;-70
2023/05/12 00:08:58;;;;;;;5.68;4.78;;;12.60;99.90;;;;;;5075967;28;20503;-69
2023/05/12 00:11:24;;;;;;;7.15;5.68;;;12.60;99.90;;;;;;5075988;28;20071;-70
2023/05/12 00:13:50;;;;;;;6.57;5.88;;;12.60;99.90;;;;;;5076218;28;20062;-70
2023/05/12 00:16:17;;;;;;;7.55;6.47;;;12.70;99.90;;;;;;5075878;28;20500;-70
2023/05/12 00:18:44;;;;;;;9.52;7.32;;;12.70;99.90;;;;;;5075776;28;20062;-70
2023/05/12 00:21:11;;;;;;;11.65;8.90;;;12.70;99.90;;;;;;5075413;28;20131;-69
2023/05/12 00:23:37;;;;;;;9.73;7.43;;;12.70;99.90;;;;;;5075280;28;20058;-70
2023/05/12 00:26:03;;;;;;;12.27;8.05;;;12.70;99.90;;;;;;5075705;28;20119;-70
2023/05/12 00:28:28;;;;;;;12.63;9.65;;;12.70;99.90;;;;;;5075570;28;20123;-69
2023/05/12 00:30:54;;;;;;;14.32;10.95;;;12.60;99.90;;;;;;5075644;28;20079;-69
2023/05/12 00:33:20;;;;;;;14.88;11.15;;;12.60;99.90;;;;;;5059017;28;20040;-70
2023/05/12 00:35:46;;;;;;;16.88;11.98;;;12.60;99.90;;;;;;5075572;28;20089;-70
2023/05/12 00:38:12;;;;;;;15.00;10.85;;;12.70;99.90;;;;;;5075468;28;20043;-70
2023/05/12 00:40:37;;;;;;;14.80;11.68;;;12.70;99.90;;;;;;5075678;28;20035;-70
2023/05/12 00:43:03;;;;;;;19.40;14.00;;;12.60;99.90;;;;;;5075445;28;20546;-70
2023/05/12 00:45:30;;;;;;;22.23;15.00;;;12.70;99.90;;;;;;5059850;28;20036;-70
2023/05/12 00:47:56;;;;;;;19.95;14.48;;;12.70;99.90;;;;;;5075594;28;20086;-70
2023/05/12 00:50:22;;;;;;;21.25;16.25;;;12.60;99.90;;;;;;5075637;28;20051;-70
2023/05/12 00:52:48;;;;;;;24.85;16.98;;;12.70;99.90;;;;;;5075234;28;20497;-70
2023/05/12 00:55:14;;;;;;;25.52;17.05;;;12.60;99.90;;;;;;5075505;28;20110;-70
2023/05/12 00:57:41;;;;;;;26.63;18.65;;;12.60;99.90;;;;;;5058584;28;20076;-70
2023/05/12 01:00:07;;;;;;;29.50;18.70;;;12.60;99.90;;;;;;5093168;28;20046;-69
2023/05/12 01:02:33;;;;;;;35.38;21.58;;;12.70;99.90;;;;;;5075136;28;20044;-69
2023/05/12 01:04:59;;;;;;;33.20;20.75;;;12.60;99.90;;;;;;5075156;28;20047;-69
2023/05/12 01:07:26;;;;;;;34.67;19.77;;;12.50;99.90;;;;;;5075437;28;20051;-69
2023/05/12 01:09:55;;;;;;;34.60;20.17;;;12.60;99.90;;;;;;5075127;28;20036;-69
2023/05/12 01:12:22;;;;;;;33.22;20.25;;;12.60;99.90;;;;;;5075187;28;20130;-70
2023/05/12 01:14:49;;;;;;;31.80;20.65;;;12.60;99.90;;;;;;5093431;28;20062;-70
2023/05/12 01:17:25;;;;;;;34.45;21.17;;;12.70;99.90;;;;;;5075078;28;20044;-69
2023/05/12 01:19:55;;;;;;;30.48;19.63;;;12.70;99.90;;;;;;5058307;28;20050;-70
2023/05/12 01:22:21;;;;;;;33.50;20.88;;;12.60;99.90;;;;;;5074992;28;20109;-70
2023/05/12 01:24:49;;;;;;;39.22;23.23;;;12.60;99.90;;;;;;5075019;28;20480;-70
2023/05/12 01:27:16;;;;;;;37.47;21.92;;;12.60;99.90;;;;;;5058316;28;20071;-70
2023/05/12 01:29:45;;;;;;;31.83;20.23;;;12.60;99.90;;;;;;5075118;28;20043;-69
2023/05/12 01:32:12;;;;;;;37.05;23.60;;;12.70;99.90;;;;;;5075039;28;20040;-69
2023/05/12 01:34:37;;;;;;;44.88;25.70;;;12.60;99.90;;;;;;5078460;28;20040;-70
2023/05/12 01:37:03;;;;;;;42.75;25.48;;;12.60;99.90;;;;;;5062329;28;20040;-70
2023/05/12 01:39:29;;;;;;;44.33;26.15;;;12.60;99.90;;;;;;5079083;28;20134;-69
2023/05/12 01:41:55;;;;;;;50.38;27.13;;;12.70;99.90;;;;;;5078827;28;20489;-70
2023/05/12 01:44:20;;;;;;;43.55;26.73;;;12.60;99.90;;;;;;5079961;28;20104;-70
2023/05/12 01:46:48;;;;;;;55.25;30.38;;;12.60;99.90;;;;;;5078721;28;20480;-69
2023/05/12 01:49:13;;;;;;;43.42;27.23;;;12.60;99.90;;;;;;5078583;28;20044;-69
2023/05/12 01:51:39;;;;;;;48.00;30.05;;;12.60;99.90;;;;;;5078657;28;20101;-69
2023/05/12 01:54:05;;;;;;;46.05;28.48;;;12.60;99.90;;;;;;5078691;28;20046;-69
2023/05/12 01:56:30;;;;;;;52.88;30.73;;;12.70;99.90;;;;;;5078593;28;20047;-69
2023/05/12 01:58:56;;;;;;;46.65;27.75;;;12.70;99.90;;;;;;5078589;28;20040;-69
2023/05/12 02:01:24;;;;;;;48.42;30.30;;;12.60;99.90;;;;;;5078465;28;20389;-70
2023/05/12 02:03:50;;;;;;;64.72;32.42;;;12.70;99.90;;;;;;5078403;28;20066;-70
2023/05/12 02:06:15;;;;;;;56.05;29.38;;;12.70;99.90;;;;;;5078390;28;20044;-70
2023/05/12 02:08:41;;;;;;;51.83;31.02;;;12.60;99.90;;;;;;5061590;28;20032;-69
2023/05/12 02:11:08;;;;;;;51.45;29.95;;;12.70;99.90;;;;;;5079404;28;20044;-70
2023/05/12 02:13:34;;;;;;;64.97;31.13;;;12.70;99.90;;;;;;5078229;28;20059;-70
2023/05/12 02:16:00;;;;;;;54.53;30.85;;;12.70;99.90;;;;;;5079238;28;20040;-70
2023/05/12 02:18:26;;;;;;;61.08;31.92;;;12.70;99.90;;;;;;5078112;28;20408;-70
2023/05/12 02:20:51;;;;;;;54.38;30.77;;;12.70;99.90;;;;;;5078066;28;20033;-69
2023/05/12 02:23:18;;;;;;;69.43;33.17;;;12.80;99.90;;;;;;5078084;28;20040;-69
2023/05/12 02:25:43;;;;;;;51.97;31.23;;;12.80;99.90;;;;;;5061523;28;20059;-70
2023/05/12 02:28:10;;;;;;;47.15;29.30;;;12.80;99.90;;;;;;5077944;28;20513;-70
2023/05/12 02:30:44;;;;;;;52.58;29.95;;;12.80;99.90;;;;;;5061476;28;20036;-70
2023/05/12 02:33:10;;;;;;;55.10;31.30;;;12.80;99.90;;;;;;5078499;28;20039;-70
2023/05/12 02:35:36;;;;;;;54.42;30.73;;;12.70;99.90;;;;;;5078085;28;20032;-70
2023/05/12 02:38:03;;;;;;;51.70;29.55;;;12.80;99.90;;;;;;5077782;28;20032;-70
2023/05/12 02:40:29;;;;;;;58.45;32.80;;;12.80;99.90;;;;;;5077921;28;20115;-70
2023/05/12 02:42:55;;;;;;;57.42;31.92;;;12.80;99.90;;;;;;5061290;28;20473;-70
2023/05/12 02:45:21;;;;;;;49.17;30.27;;;12.70;99.90;;;;;;5077125;28;20107;-70
2023/05/12 02:47:47;;;;;;;49.22;29.75;;;12.70;99.90;;;;;;5077553;28;20526;-70
2023/05/12 02:50:13;;;;;;;52.50;30.73;;;12.80;99.90;;;;;;5077717;28;20097;-69
2023/05/12 02:52:39;;;;;;;52.45;31.60;;;12.80;99.90;;;;;;5077607;28;20054;-69
2023/05/12 02:55:05;;;;;;;51.83;30.92;;;12.70;99.90;;;;;;5077805;28;20044;-69
2023/05/12 02:57:32;;;;;;;49.30;30.92;;;12.80;99.90;;;;;;5077479;28;20123;-70
2023/05/12 03:00:05;;;;;;;52.83;31.02;;;12.80;99.90;;;;;;5060566;28;20036;-69
2023/05/12 03:02:35;;;;;;;54.53;31.85;;;12.70;99.90;;;;;;5077372;28;20526;-69
2023/05/12 03:05:01;;;;;;;59.78;33.30;;;12.80;99.90;;;;;;5077386;28;20072;-69
2023/05/12 03:07:27;;;;;;;57.40;32.47;;;12.80;99.90;;;;;;5095950;28;20485;-69
2023/05/12 03:09:53;;;;;;;57.90;32.35;;;12.80;99.90;;;;;;5077425;28;20605;-69
2023/05/12 03:12:18;;;;;;;56.40;34.03;;;12.70;99.90;;;;;;5077178;28;20408;-69
2023/05/12 03:14:44;;;;;;;51.72;32.00;;;12.70;99.90;;;;;;5077143;28;20093;-69
2023/05/12 03:17:09;;;;;;;56.75;33.42;;;12.70;99.90;;;;;;5077147;28;20032;-70
2023/05/12 03:19:35;;;;;;;54.50;33.67;;;12.80;99.90;;;;;;5076973;28;20129;-69
2023/05/12 03:22:02;;;;;;;52.03;33.25;;;12.80;99.90;;;;;;5077038;28;20044;-69
2023/05/12 03:24:28;;;;;;;74.95;36.45;;;12.70;99.90;;;;;;5076876;28;20043;-69
2023/05/12 03:26:54;;;;;;;55.53;33.85;;;12.70;99.90;;;;;;5077167;28;20048;-69
2023/05/12 03:29:20;;;;;;;58.58;33.50;;;12.70;99.90;;;;;;5076742;28;20389;-70
2023/05/12 03:31:46;;;;;;;61.40;33.95;;;12.70;99.90;;;;;;5076753;28;20036;-70
2023/05/12 03:34:11;;;;;;;72.85;35.58;;;12.70;99.90;;;;;;5060110;28;20082;-70
2023/05/12 03:36:37;;;;;;;61.28;34.65;;;12.80;99.90;;;;;;5076748;28;20109;-70
2023/05/12 03:39:03;;;;;;;51.78;30.95;;;12.80;99.90;;;;;;5076560;28;20036;-70
2023/05/12 03:41:29;;;;;;;60.22;33.40;;;12.80;99.90;;;;;;5076458;28;20076;-70
2023/05/12 03:43:54;;;;;;;55.28;34.72;;;12.80;99.90;;;;;;5076588;28;20036;-70
2023/05/12 03:46:20;;;;;;;70.80;36.70;;;12.90;99.90;;;;;;5076538;28;20067;-70
2023/05/12 03:48:46;;;;;;;57.42;33.28;;;12.80;99.90;;;;;;5076608;28;20040;-70
2023/05/12 03:51:11;;;;;;;67.28;36.15;;;12.80;99.90;;;;;;5076348;28;20123;-70
2023/05/12 03:53:41;;;;;;;61.38;34.03;;;12.80;99.90;;;;;;5076528;28;20043;-70
2023/05/12 03:56:07;;;;;;;62.25;34.45;;;12.90;99.90;;;;;;5076261;28;20084;-70
2023/05/12 03:58:32;;;;;;;59.97;35.47;;;12.90;99.90;;;;;;5076158;28;20051;-70
2023/05/12 04:01:00;;;;;;;67.70;36.97;;;12.90;99.90;;;;;;5076085;28;20036;-69
2023/05/12 04:03:26;;;;;;;65.68;35.22;;;12.90;99.90;;;;;;5076143;28;20404;-70
2023/05/12 04:06:00;;;;;;;54.63;33.75;;;12.80;99.90;;;;;;5077133;28;20086;-70
2023/05/12 04:08:26;;;;;;;59.20;33.88;;;12.90;99.90;;;;;;5076017;28;20046;-70
2023/05/12 04:10:57;;;;;;;61.00;34.95;;;12.80;99.90;;;;;;5076277;28;20036;-70
2023/05/12 04:13:23;;;;;;;59.80;33.35;;;12.90;99.90;;;;;;5076044;28;20097;-70
2023/05/12 04:15:49;;;;;;;47.25;30.42;;;12.80;99.90;;;;;;5076147;28;20036;-70
2023/05/12 04:18:16;;;;;;;55.97;32.58;;;12.90;99.90;;;;;;5075768;28;20036;-69
2023/05/12 04:20:43;;;;;;;46.80;31.20;;;12.90;99.90;;;;;;5075995;28;20378;-69
2023/05/12 04:23:08;;;;;;;47.35;30.42;;;12.80;99.90;;;;;;5075795;28;20125;-70
2023/05/12 04:25:38;;;;;;;46.90;29.98;;;12.90;99.90;;;;;;5059056;28;20039;-70
2023/05/12 04:28:04;;;;;;;45.78;29.23;;;12.90;99.90;;;;;;5075890;28;20054;-70
2023/05/12 04:30:30;;;;;;;54.80;32.88;;;12.90;99.90;;;;;;5075679;28;20036;-69
2023/05/12 04:32:55;;;;;;;54.80;32.35;;;12.90;99.90;;;;;;5075881;28;20089;-69
2023/05/12 04:35:21;;;;;;;54.88;32.95;;;12.90;99.90;;;;;;5075691;28;20032;-69
2023/05/12 04:37:47;;;;;;;50.00;31.67;;;12.90;99.90;;;;;;5058943;28;20032;-69
2023/05/12 04:40:13;;;;;;;58.65;33.97;;;13.00;99.90;;;;;;5058768;28;20043;-69
2023/05/12 04:42:39;;;;;;;49.20;32.20;;;12.90;99.90;;;;;;5075387;28;20044;-69
2023/05/12 04:45:06;;;;;;;40.70;30.25;;;12.90;99.90;;;;;;5075431;28;20154;-70
2023/05/12 04:47:31;;;;;;;39.25;28.10;;;13.00;99.90;;;;;;5075467;28;20031;-70
2023/05/12 04:49:57;;;;;;;50.45;29.65;;;13.00;99.90;;;;;;5058661;28;20028;-70
2023/05/12 04:52:23;;;;;;;56.28;33.70;;;13.00;99.90;;;;;;5075328;28;20112;-69
2023/05/12 04:54:49;;;;;;;48.28;30.63;;;13.00;99.90;;;;;;5058718;28;20032;-69
2023/05/12 04:57:15;;;;;;;44.40;30.52;;;13.10;99.90;;;;;;5075302;28;20093;-69
2023/05/12 04:59:41;;;;;;;58.20;34.35;;;13.00;99.90;;;;;;5058361;28;20043;-69
2023/05/12 05:02:07;;;;;;;49.38;32.17;;;13.00;99.90;;;;;;5075269;28;20404;-69
2023/05/12 05:04:33;;;;;;;42.42;29.58;;;13.10;99.90;;;;;;5093314;28;20078;-69
2023/05/12 05:06:59;;;;;;;50.88;32.13;;;13.10;99.90;;;;;;5075241;28;20075;-69
2023/05/12 05:09:24;;;;;;;55.30;32.78;;;13.10;99.90;;;;;;5074912;28;20074;-69
2023/05/12 05:11:50;;;;;;;58.63;33.67;;;13.00;99.90;;;;;;5075204;28;20524;-69
2023/05/12 05:14:16;;;;;;;55.33;33.13;;;13.00;99.90;;;;;;5075139;28;20044;-70
2023/05/12 05:16:41;;;;;;;52.30;32.38;;;13.10;99.90;;;;;;5075109;28;20039;-70
2023/05/12 05:19:07;;;;;;;43.47;28.70;;;13.10;99.90;;;;;;5075240;28;20048;-70
2023/05/12 05:21:33;;;;;;;61.53;34.83;;;13.10;99.90;;;;;;5075152;28;20523;-70
2023/05/12 05:23:59;;;;;;;52.15;33.58;;;13.10;99.90;;;;;;5058313;28;20067;-70
2023/05/12 05:26:24;;;;;;;51.78;32.63;;;13.10;99.90;;;;;;5075014;28;20082;-70
2023/05/12 05:28:53;;;;;;;66.63;35.33;;;13.00;99.90;;;;;;5074879;28;20036;-69
2023/05/12 05:31:20;;;;;;;48.60;32.33;;;13.10;99.90;;;;;;5074975;28;20054;-69
2023/05/12 05:33:46;;;;;;;59.63;34.42;;;13.10;99.90;;;;;;5075175;28;20050;-69
2023/05/12 05:36:12;;;;;;;60.80;35.28;;;13.10;99.90;;;;;;5074915;28;20130;-69
2023/05/12 05:38:37;;;;;;;57.15;33.10;;;13.20;99.90;;;;;;5074727;28;20125;-69
2023/05/12 05:41:03;;;;;;;50.78;31.85;;;13.30;99.90;;;;;;5075205;28;20040;-69
2023/05/12 05:43:29;;;;;;;58.53;34.25;;;13.20;99.90;;;;;;5074873;28;20043;-69
2023/05/12 05:45:56;;;;;;;57.70;34.35;;;13.30;99.90;;;;;;5058299;28;20032;-69
2023/05/12 05:48:23;;;;;;;52.88;33.00;;;13.20;99.90;;;;;;5074683;28;20405;-69
2023/05/12 05:50:50;;;;;;;51.08;32.50;;;13.30;99.90;;;;;;5074712;28;20385;-69
2023/05/12 05:53:17;;;;;;;62.72;34.90;;;13.20;99.90;;;;;;5074744;28;20048;-69
2023/05/12 05:55:43;;;;;;;55.30;34.38;;;13.40;99.90;;;;;;5058006;28;20048;-69
2023/05/12 05:58:09;;;;;;;55.00;34.25;;;13.30;99.90;;;;;;5074890;28;20047;-69
2023/05/12 06:00:34;;;;;;;59.45;34.17;;;13.30;99.90;;;;;;5074362;28;20508;-69
2023/05/12 06:03:00;;;;;;;52.97;33.63;;;13.30;99.90;;;;;;5074959;28;20028;-69
2023/05/12 06:05:26;;;;;;;56.92;34.85;;;13.40;99.90;;;;;;5074895;28;20401;-69
2023/05/12 06:07:51;;;;;;;64.00;35.42;;;13.40;99.90;;;;;;5058161;28;20465;-69
2023/05/12 06:10:17;;;;;;;55.47;33.00;;;13.50;99.90;;;;;;5058137;28;20032;-70
2023/05/12 06:12:43;;;;;;;50.33;32.38;;;13.50;99.90;;;;;;5074768;28;20417;-69
2023/05/12 06:15:09;;;;;;;58.80;34.88;;;13.40;99.90;;;;;;5074522;28;20044;-69
2023/05/12 06:17:35;;;;;;;58.88;35.15;;;13.40;99.90;;;;;;5074681;28;20036;-69
2023/05/12 06:20:00;;;;;;;49.28;32.67;;;13.50;99.90;;;;;;5074856;28;20042;-69
2023/05/12 06:22:26;;;;;;;53.20;33.83;;;13.40;99.90;;;;;;5061351;28;20047;-69
2023/05/12 06:24:52;;;;;;;61.72;35.35;;;13.60;99.90;;;;;;5078082;28;20074;-69
2023/05/12 06:27:18;;;;;;;46.22;31.00;;;13.50;99.90;;;;;;5078054;28;20071;-69
2023/05/12 06:29:43;;;;;;;50.40;32.15;;;13.60;99.90;;;;;;5078261;28;20122;-69
2023/05/12 06:32:09;;;;;;;46.25;31.88;;;13.60;99.90;;;;;;5077917;28;20048;-70
2023/05/12 06:34:35;;;;;;;44.80;31.02;;;13.60;99.90;;;;;;5077900;28;20097;-69
2023/05/12 06:37:01;;;;;;;48.38;32.38;;;13.60;99.90;;;;;;5077771;28;20531;-69
2023/05/12 06:39:26;;;;;;;52.45;32.60;;;13.60;99.90;;;;;;5077811;28;20098;-70
2023/05/12 06:41:52;;;;;;;44.30;30.70;;;13.50;99.90;;;;;;5077730;28;20039;-69
2023/05/12 06:44:17;;;;;;;52.25;33.72;;;13.60;99.90;;;;;;5077773;28;20044;-69
2023/05/12 06:46:43;;;;;;;52.95;33.75;;;13.50;99.90;;;;;;5077652;28;20043;-69
2023/05/12 06:49:09;;;;;;;44.55;31.30;;;13.50;99.90;;;;;;5077643;28;20553;-69
2023/05/12 06:51:35;;;;;;;52.28;33.88;;;13.60;99.90;;;;;;5077606;28;20051;-70
2023/05/12 06:54:01;;;;;;;51.50;33.67;;;13.50;99.90;;;;;;5077577;28;20497;-69
2023/05/12 06:56:28;;;;;;;51.35;32.92;;;13.60;99.90;;;;;;5077544;28;20120;-69
2023/05/12 06:58:59;;;;;;;57.53;35.53;;;13.60;99.90;;;;;;5060844;28;20040;-69
2023/05/12 07:01:26;;;;;;;49.90;33.30;;;13.50;99.90;;;;;;5077456;28;20075;-69
2023/05/12 07:03:51;;;;;;;58.53;34.20;;;13.60;99.90;;;;;;5077616;28;20039;-70
2023/05/12 07:06:17;;;;;;;49.50;32.53;;;13.50;99.90;;;;;;5077623;28;20158;-70
2023/05/12 07:08:42;;;;;;;57.03;34.40;;;13.60;99.90;;;;;;5077494;28;20039;-70
2023/05/12 07:11:08;;;;;;;52.15;34.55;;;13.60;99.90;;;;;;5077310;28;20467;-70
2023/05/12 07:13:33;;;;;;;48.25;31.85;;;13.50;99.90;;;;;;5077216;28;20047;-70
2023/05/12 07:15:59;;;;;;;57.85;35.03;;;13.50;99.90;;;;;;5077217;28;20076;-70
2023/05/12 07:18:25;;;;;;;46.03;32.40;;;13.50;99.90;;;;;;5077274;28;20036;-70
2023/05/12 07:20:51;;;;;;;46.40;31.98;;;13.70;99.90;;;;;;5076874;28;20515;-69
2023/05/12 07:23:16;;;;;;;50.38;33.20;;;13.50;99.90;;;;;;5076977;28;20119;-70
2023/05/12 07:25:42;;;;;;;47.42;32.70;;;13.60;99.90;;;;;;5077230;28;20044;-70
2023/05/12 07:28:08;;;;;;;51.35;34.65;;;13.70;99.90;;;;;;5076753;28;20407;-70
2023/05/12 07:30:33;;;;;;;54.30;35.38;;;13.70;99.90;;;;;;5076654;28;20028;-70
2023/05/12 07:33:00;;;;;;;50.33;33.33;;;13.80;99.90;;;;;;5076722;28;20036;-70
2023/05/12 07:35:26;;;;;;;46.38;33.50;;;13.90;99.90;;;;;;5076714;28;20044;-70
2023/05/12 07:37:52;;;;;;;44.33;31.15;;;13.90;99.90;;;;;;5076986;28;20044;-70
2023/05/12 07:40:17;;;;;;;45.53;31.80;;;14.10;99.90;;;;;;5076841;28;20066;-70
2023/05/12 07:42:43;;;;;;;38.45;28.63;;;14.00;99.90;;;;;;5076582;28;20508;-70
2023/05/12 07:45:09;;;;;;;37.85;28.58;;;14.10;99.90;;;;;;5076582;28;20039;-70
2023/05/12 07:47:34;;;;;;;39.72;29.27;;;14.20;99.90;;;;;;5076655;28;20047;-69
2023/05/12 07:50:00;;;;;;;38.05;28.77;;;14.20;99.90;;;;;;5076667;28;20032;-69
2023/05/12 07:52:26;;;;;;;38.75;28.77;;;14.20;99.90;;;;;;5076352;28;20457;-69
2023/05/12 07:54:51;;;;;;;37.22;28.33;;;14.30;99.90;;;;;;5076360;28;20061;-69
2023/05/12 07:57:17;;;;;;;37.58;28.40;;;14.40;99.90;;;;;;5076327;28;20036;-70
2023/05/12 07:59:43;;;;;;;36.42;28.85;;;14.40;99.90;;;;;;5059724;28;20036;-70
2023/05/12 08:02:08;;;;;;;36.92;29.08;;;14.60;99.90;;;;;;5076119;28;20505;-70
2023/05/12 08:04:34;;;;;;;38.28;29.65;;;14.70;99.90;;;;;;5076240;28;20036;-70
2023/05/12 08:07:00;;;;;;;35.92;27.75;;;14.70;99.90;;;;;;5076103;28;20089;-70
2023/05/12 08:09:25;;;;;;;36.25;29.63;;;14.80;99.90;;;;;;5075941;28;20039;-69
2023/05/12 08:11:53;;;;;;;36.80;28.00;;;14.90;99.90;;;;;;5076214;28;20040;-69
2023/05/12 08:14:21;;;;;;;36.58;28.85;;;15.10;99.90;;;;;;5076055;28;20089;-69
2023/05/12 08:16:46;;;;;;;39.47;29.92;;;15.10;99.90;;;;;;5075903;28;20048;-70
2023/05/12 08:19:12;;;;;;;38.03;29.13;;;15.20;99.90;;;;;;5059153;28;20046;-70
2023/05/12 08:21:39;;;;;;;36.80;28.65;;;15.20;99.90;;;;;;5075705;28;20044;-70
2023/05/12 08:24:04;;;;;;;34.63;27.65;;;15.30;99.90;;;;;;5075800;28;20044;-70
2023/05/12 08:26:30;;;;;;;38.28;28.33;;;15.20;99.90;;;;;;5076070;28;20040;-70
2023/05/12 08:28:55;;;;;;;33.35;27.83;;;15.40;99.90;;;;;;5076048;28;20032;-70
2023/05/12 08:31:21;;;;;;;35.88;28.77;;;15.50;99.90;;;;;;5075761;28;20040;-70
2023/05/12 08:33:47;;;;;;;34.92;27.05;;;15.50;99.90;;;;;;5058986;28;20071;-70
2023/05/12 08:36:12;;;;;;;31.73;26.83;;;15.50;99.90;;;;;;5075933;28;20126;-70
2023/05/12 08:38:38;;;;;;;33.85;27.98;;;15.60;99.90;;;;;;5075557;28;20492;-70
2023/05/12 08:41:36;;;;;;;32.70;26.73;;;15.60;99.90;;;;;;5058899;28;20692;-70
2023/05/12 08:44:02;;;;;;;30.88;26.20;;;15.80;99.90;;;;;;5074882;28;20123;-70
2023/05/12 08:46:30;;;;;;;30.65;27.30;;;15.80;99.90;;;;;;5075531;28;20169;-70
2023/05/12 08:48:59;;;;;;;32.95;25.38;;;15.80;99.90;;;;;;5058873;28;20036;-70
2023/05/12 08:51:27;;;;;;;30.52;27.08;;;15.90;99.90;;;;;;5059001;28;20048;-70
2023/05/12 08:53:55;;;;;;;34.30;27.67;;;16.00;99.90;;;;;;5075653;28;20044;-69
2023/05/12 08:56:21;;;;;;;35.05;27.73;;;16.10;99.90;;;;;;5075381;28;20120;-70
2023/05/12 08:58:47;;;;;;;30.15;26.40;;;16.20;99.90;;;;;;5075075;28;20082;-69
2023/05/12 09:01:14;;;;;;;30.25;26.95;;;16.20;99.90;;;;;;5075254;28;20036;-70
2023/05/12 09:03:41;;;;;;;32.40;28.90;;;16.30;99.90;;;;;;5075653;28;20039;-70
2023/05/12 09:06:09;;;;;;;31.30;26.38;;;16.50;99.90;;;;;;5058615;28;20063;-70
2023/05/12 09:08:36;;;;;;;29.33;25.10;;;16.70;99.90;;;;;;5075162;28;20546;-69
2023/05/12 09:11:02;;;;;;;29.75;24.10;;;16.90;99.90;;;;;;5075153;28;20051;-70
2023/05/12 09:13:49;;;;;;;23.85;20.80;;;17.10;99.90;;;;;;5075423;28;20130;-70
2023/05/12 09:16:21;;;;;;;25.85;22.35;;;17.40;99.90;;;;;;5075412;28;20087;-70
2023/05/12 09:18:52;;;;;;;26.30;22.38;;;17.50;99.90;;;;;;5075094;28;20044;-70
2023/05/12 09:21:18;;;;;;;27.38;23.33;;;17.80;99.90;;;;;;5075008;28;20044;-70
2023/05/12 09:24:05;;;;;;;24.88;22.27;;;17.80;99.90;;;;;;5075235;28;20492;-70
2023/05/12 09:26:50;;;;;;;25.75;21.95;;;18.00;99.90;;;;;;5058310;28;20032;-70
2023/05/12 09:29:16;;;;;;;22.77;20.45;;;18.10;99.90;;;;;;5075028;28;20047;-70
2023/05/12 09:31:54;;;;;;;23.23;20.23;;;18.20;99.90;;;;;;5058073;28;20467;-70
2023/05/12 09:34:28;;;;;;;22.63;20.25;;;18.40;99.90;;;;;;5058131;28;20472;-70
2023/05/12 09:36:58;;;;;;;22.38;18.75;;;18.40;99.90;;;;;;5075143;28;20044;-70
2023/05/12 09:39:24;;;;;;;19.08;17.08;;;18.50;99.90;;;;;;5074896;28;20054;-70
2023/05/12 09:41:51;;;;;;;19.23;15.75;;;18.50;99.90;;;;;;5074836;28;20485;-70
2023/05/12 09:44:17;;;;;;;13.23;11.82;;;18.70;99.90;;;;;;5074849;28;20040;-70
2023/05/12 09:46:43;;;;;;;19.77;15.63;;;18.80;99.90;;;;;;5075097;28;20081;-70
2023/05/12 09:49:09;;;;;;;18.10;16.25;;;19.00;99.90;;;;;;5075065;28;20101;-70
2023/05/12 09:51:35;;;;;;;17.08;15.23;;;19.10;99.90;;;;;;5058243;28;20069;-70
2023/05/12 09:54:00;;;;;;;16.77;15.00;;;19.20;99.90;;;;;;5075370;28;20069;-70
2023/05/12 09:56:28;;;;;;;16.80;14.23;;;19.40;99.90;;;;;;5078693;28;20040;-70
2023/05/12 09:58:55;;;;;;;16.80;15.20;;;19.50;99.90;;;;;;5078425;28;20040;-70
2023/05/12 10:01:22;;;;;;;15.45;13.90;;;19.70;99.90;;;;;;5078624;28;20036;-70
2023/05/12 10:03:51;;;;;;;13.02;11.73;;;19.80;99.90;;;;;;5078542;28;20036;-70
2023/05/12 10:06:25;;;;;;;14.52;13.23;;;19.90;99.90;;;;;;5061752;28;20389;-70
2023/05/12 10:09:12;;;;;;;15.23;13.50;;;20.00;99.90;;;;;;5078254;28;20389;-70
2023/05/12 10:11:39;;;;;;;10.52;9.43;;;20.10;99.90;;;;;;5078377;28;20048;-70
2023/05/12 10:14:07;;;;;;;11.15;10.05;;;20.40;99.90;;;;;;5061690;28;20040;-70
2023/05/12 10:16:33;;;;;;;9.48;8.32;;;20.60;99.90;;;;;;5078509;28;20051;-70
2023/05/12 10:18:59;;;;;;;10.38;8.88;;;20.70;99.90;;;;;;5078331;28;20032;-70
2023/05/12 10:21:25;;;;;;;10.90;9.43;;;20.90;99.90;;;;;;5078328;28;20089;-70
2023/05/12 10:23:52;;;;;;;10.65;9.52;;;21.10;99.90;;;;;;5078172;28;20573;-70
2023/05/12 10:26:19;;;;;;;6.65;5.55;;;21.30;99.90;;;;;;5061646;28;20117;-70
2023/05/12 10:28:45;;;;;;;6.97;6.28;;;21.60;99.90;;;;;;5077969;28;20512;-70
2023/05/12 10:31:12;;;;;;;8.32;7.15;;;21.70;99.90;;;;;;5078258;28;20123;-71
2023/05/12 10:33:37;;;;;;;11.68;10.30;;;21.90;99.90;;;;;;5078190;28;20050;-70
2023/05/12 10:36:03;;;;;;;12.32;9.88;;;22.00;99.90;;;;;;5077875;28;20466;-70
2023/05/12 10:38:36;;;;;;;14.95;13.50;;;22.00;99.90;;;;;;5077844;28;20036;-70
2023/05/12 10:41:04;;;;;;;16.00;14.32;;;22.00;99.90;;;;;;5077817;28;20075;-70
2023/05/12 10:43:43;;;;;;;15.50;13.98;;;22.10;99.90;;;;;;5077746;28;20396;-70
2023/05/12 10:46:21;;;;;;;12.90;11.70;;;22.30;99.90;;;;;;5077642;28;20086;-70
2023/05/12 10:48:54;;;;;;;13.35;11.35;;;22.40;99.90;;;;;;5061120;28;20527;-70
2023/05/12 10:51:22;;;;;;;15.00;13.50;;;22.50;99.90;;;;;;5077814;28;20075;-70
2023/05/12 10:53:55;;;;;;;13.05;11.75;;;22.70;99.90;;;;;;5077479;28;20051;-70
2023/05/12 10:56:28;;;;;;;14.32;11.98;;;22.90;99.90;;;;;;5077820;28;20052;-70
2023/05/12 10:59:11;;;;;;;14.13;12.63;;;22.80;99.90;;;;;;5077284;28;20040;-70
2023/05/12 11:01:37;;;;;;;;;;;22.70;99.20;;;;;;5077737;28;20050;-70
2023/05/12 11:04:10;;;;;;;12.55;11.35;;;22.70;99.90;;;;;;5077335;28;19915;-70
2023/05/12 11:06:36;;;;;;;12.07;10.10;;;22.90;99.90;;;;;;5076814;28;20028;-70
2023/05/12 11:09:03;;;;;;;13.40;11.85;;;23.10;99.60;;;;;;5077175;28;20381;-70
2023/05/12 11:11:29;;;;;;;12.38;11.18;;;23.20;99.00;;;;;;5077544;28;20079;-70
2023/05/12 11:13:55;;;;;;;12.40;11.13;;;23.40;98.20;;;;;;5077234;28;20550;-70
2023/05/12 11:16:20;;;;;;;12.48;11.38;;;23.50;96.90;;;;;;5077510;28;20040;-70
2023/05/12 11:18:47;;;;;;;11.77;10.57;;;23.70;96.00;;;;;;5077025;28;20484;-70
2023/05/12 11:21:13;;;;;;;11.52;10.32;;;23.80;95.10;;;;;;5076982;28;20048;-70
2023/05/12 11:23:39;;;;;;;12.20;11.00;;;23.80;94.90;;;;;;5076987;28;20032;-70
2023/05/12 11:26:06;;;;;;;11.32;10.15;;;23.70;93.90;;;;;;5076914;28;20059;-70
2023/05/12 11:28:40;;;;;;;11.35;9.93;;;23.60;94.20;;;;;;5076850;28;20408;-70
2023/05/12 11:31:07;;;;;;;10.48;8.52;;;23.80;92.90;;;;;;5076874;28;20036;-71
2023/05/12 11:33:32;;;;;;;12.70;7.75;;;24.00;91.60;;;;;;5060149;28;20508;-70
2023/05/12 11:36:03;;;;;;;11.20;8.98;;;24.30;91.30;;;;;;5060349;28;20075;-70
2023/05/12 11:38:28;;;;;;;8.85;7.63;;;24.60;91.40;;;;;;5076884;28;20040;-70
2023/05/12 11:40:54;;;;;;;9.82;8.85;;;24.60;87.00;;;;;;5076875;28;20085;-70
2023/05/12 11:43:21;;;;;;;10.10;8.85;;;24.60;86.70;;;;;;5076566;28;20413;-70
2023/05/12 11:45:46;;;;;;;10.27;9.27;;;24.80;86.60;;;;;;5076841;28;20043;-70
2023/05/12 11:48:13;;;;;;;11.05;9.63;;;24.90;85.60;;;;;;5060034;28;20047;-70
2023/05/12 11:50:46;;;;;;;10.48;9.15;;;25.00;84.30;;;;;;5076339;28;20071;-70
2023/05/12 11:53:14;;;;;;;10.68;7.93;;;25.10;84.00;;;;;;5059734;28;20082;-70
2023/05/12 11:55:52;;;;;;;14.43;9.27;;;25.20;84.10;;;;;;5076380;28;20397;-70
2023/05/12 11:58:20;;;;;;;10.35;8.77;;;25.40;81.50;;;;;;5076496;28;20039;-70
2023/05/12 12:00:47;;;;;;;12.68;8.43;;;25.40;80.80;;;;;;5076137;28;20036;-70
2023/05/12 12:03:14;;;;;;;9.43;7.22;;;25.50;80.40;;;;;;5076954;28;20036;-70
2023/05/12 12:05:42;;;;;;;8.60;5.85;;;25.60;80.60;;;;;;5076091;28;20037;-70
2023/05/12 12:08:17;;;;;;;6.93;5.30;;;25.70;78.30;;;;;;5076262;28;20081;-70
2023/05/12 12:10:44;;;;;;;7.50;4.90;;;25.80;75.40;;;;;;5060429;28;20047;-71
2023/05/12 12:13:11;;;;;;;5.70;5.03;;;25.80;74.70;;;;;;5076043;28;20043;-70
2023/05/12 12:15:37;;;;;;;7.03;4.80;;;25.80;71.90;;;;;;5076252;28;20104;-70
2023/05/12 12:18:03;;;;;;;6.07;4.93;;;25.80;71.90;;;;;;5074902;28;20476;-70
2023/05/12 12:20:28;;;;;;;6.65;5.47;;;26.00;72.40;;;;;;5077011;28;20119;-70
2023/05/12 12:22:54;;;;;;;6.80;5.20;;;26.10;72.00;;;;;;5075794;28;20420;-70
2023/05/12 12:25:20;;;;;;;4.30;3.25;;;26.00;70.70;;;;;;5059194;28;20036;-70
2023/05/12 12:27:47;;;;;;;6.93;2.80;;;26.00;68.50;;;;;;5076024;28;20119;-70
2023/05/12 12:30:14;;;;;;;5.18;2.40;;;26.00;65.00;;;;;;5075656;28;20042;-69